createdAt,value
2023-04-19T00:00:21.360Z,93289.47
2023-04-19T00:01:18.237Z,93310.38
2023-04-19T00:02:14.993Z,93295.47
2023-04-19T00:03:12.111Z,93300.56
2023-04-19T00:04:08.943Z,93294.78
2023-04-19T00:05:06.473Z,93297.78
2023-04-19T00:06:03.548Z,93300.00
2023-04-19T00:07:00.180Z,93291.72
2023-04-19T00:07:57.035Z,93257.47
2023-04-19T00:08:53.603Z,93273.59
2023-04-19T00:09:50.256Z,93292.50
2023-04-19T00:10:46.795Z,93294.38
2023-04-19T00:11:43.408Z,93291.81
2023-04-19T00:12:40.442Z,93288.06
2023-04-19T00:13:37.122Z,93255.16
2023-04-19T00:14:33.728Z,93278.13
2023-04-19T00:15:30.416Z,93217.28
2023-04-19T00:16:27.128Z,93280.97
2023-04-19T00:17:23.778Z,93287.38
2023-04-19T00:18:20.496Z,93254.50
2023-04-19T00:19:17.096Z,93232.75
2023-04-19T00:20:13.912Z,93279.53
2023-04-19T00:21:10.510Z,93281.97
2023-04-19T00:22:07.062Z,93288.06
2023-04-19T00:23:03.825Z,93273.91
2023-04-19T00:24:03.214Z,93253.38
2023-04-19T00:24:59.862Z,93289.84
2023-04-19T00:25:56.491Z,93274.81
2023-04-19T00:26:53.104Z,93261.53
2023-04-19T00:27:49.656Z,93276.66
2023-04-19T00:28:46.343Z,93236.38
2023-04-19T00:29:42.976Z,93277.69
2023-04-19T00:30:39.602Z,93275.13
2023-04-19T00:31:36.312Z,93260.69
2023-04-19T00:32:32.955Z,93272.56
2023-04-19T00:33:29.538Z,93265.50
2023-04-19T00:34:26.135Z,93267.94
2023-04-19T00:35:22.713Z,93225.13
2023-04-19T00:36:19.260Z,93269.16
2023-04-19T00:37:16.310Z,93269.25
2023-04-19T00:38:12.928Z,93269.91
2023-04-19T00:39:09.487Z,93269.47
2023-04-19T00:40:06.788Z,93230.84
2023-04-19T00:41:03.381Z,93270.91
2023-04-19T00:42:00.007Z,93266.28
2023-04-19T00:42:56.650Z,93257.56
2023-04-19T00:43:53.283Z,93260.44
2023-04-19T00:44:49.904Z,93269.03
2023-04-19T00:45:48.060Z,93262.19
2023-04-19T00:46:45.489Z,93273.25
2023-04-19T00:47:42.331Z,93264.41
2023-04-19T00:48:39.128Z,93273.78
2023-04-19T00:49:35.844Z,93270.25
2023-04-19T00:50:32.534Z,93271.03
2023-04-19T00:51:29.279Z,93268.47
2023-04-19T00:52:26.132Z,93269.56
2023-04-19T00:53:22.763Z,93273.78
2023-04-19T00:54:20.418Z,93270.69
2023-04-19T00:55:17.132Z,93273.78
2023-04-19T00:56:14.917Z,93267.59
2023-04-19T00:57:11.480Z,93271.44
2023-04-19T00:58:09.384Z,93270.88
2023-04-19T00:59:06.792Z,93271.56
2023-04-19T01:00:06.657Z,93267.47
2023-04-19T01:01:03.210Z,93227.06
2023-04-19T01:02:00.053Z,93266.13
2023-04-19T01:02:56.848Z,93260.59
2023-04-19T01:03:53.753Z,93264.81
2023-04-19T01:04:50.546Z,93268.47
2023-04-19T01:05:48.688Z,93264.41
2023-04-19T01:06:45.368Z,93274.47
2023-04-19T01:07:43.281Z,93261.94
2023-04-19T01:08:40.259Z,93212.50
2023-04-19T01:09:41.075Z,93241.44
2023-04-19T01:10:37.695Z,93264.03
2023-04-19T01:11:34.420Z,93221.31
2023-04-19T01:12:31.049Z,93217.78
2023-04-19T01:13:28.121Z,93249.44
2023-04-19T01:14:24.774Z,93267.78
2023-04-19T01:15:21.419Z,93256.44
2023-04-19T01:16:18.461Z,93166.38
2023-04-19T01:17:15.231Z,93243.38
2023-04-19T01:18:11.910Z,93264.25
2023-04-19T01:19:08.664Z,93264.72
2023-04-19T01:20:08.103Z,93256.75
2023-04-19T01:21:05.503Z,93255.31
2023-04-19T01:22:03.999Z,93256.53
2023-04-19T01:23:00.789Z,93252.66
2023-04-19T01:23:57.333Z,93228.63
2023-04-19T01:24:54.217Z,93250.78
2023-04-19T01:25:50.985Z,93255.97
2023-04-19T01:26:48.048Z,93259.50
2023-04-19T01:27:44.727Z,93255.66
2023-04-19T01:28:41.323Z,93267.03
2023-04-19T01:29:37.934Z,93257.19
2023-04-19T01:30:36.869Z,93220.53
2023-04-19T01:31:33.529Z,93221.53
2023-04-19T01:32:30.214Z,93256.44
2023-04-19T01:33:26.964Z,93251.78
2023-04-19T01:34:23.565Z,93208.19
2023-04-19T01:35:21.415Z,93255.66
2023-04-19T01:36:17.992Z,93220.44
2023-04-19T01:37:14.882Z,93246.72
2023-04-19T01:38:11.499Z,93236.34
2023-04-19T01:39:08.627Z,93245.91
2023-04-19T01:40:06.076Z,93253.78
2023-04-19T01:41:02.753Z,93256.75
2023-04-19T01:41:59.414Z,93253.34
2023-04-19T01:42:55.997Z,93248.22
2023-04-19T01:43:53.264Z,93249.34
2023-04-19T01:44:49.860Z,93245.13
2023-04-19T01:45:46.521Z,93219.19
2023-04-19T01:46:43.172Z,93216.66
2023-04-19T01:47:39.892Z,93234.06
2023-04-19T01:48:36.534Z,93202.97
2023-04-19T01:49:33.285Z,93247.00
2023-04-19T01:50:30.773Z,93211.59
2023-04-19T01:51:27.472Z,93236.31
2023-04-19T01:52:24.143Z,93204.41
2023-04-19T01:53:20.864Z,93155.69
2023-04-19T01:54:17.735Z,93198.78
2023-04-19T01:55:14.470Z,93217.09
2023-04-19T01:56:11.100Z,93241.50
2023-04-19T01:57:07.976Z,93235.41
2023-04-19T01:58:04.551Z,93229.47
2023-04-19T01:59:01.165Z,93237.66
2023-04-19T01:59:57.844Z,93230.56
2023-04-19T02:00:54.488Z,93237.50
2023-04-19T02:01:51.170Z,93232.97
2023-04-19T02:02:48.175Z,93235.28
2023-04-19T02:03:45.181Z,93223.63
2023-04-19T02:04:41.890Z,93236.06
2023-04-19T02:05:41.555Z,93232.66
2023-04-19T02:06:38.315Z,93238.78
2023-04-19T02:07:35.352Z,93238.69
2023-04-19T02:08:32.393Z,93213.06
2023-04-19T02:09:29.175Z,93236.38
2023-04-19T02:10:25.902Z,93240.03
2023-04-19T02:11:22.571Z,93241.91
2023-04-19T02:12:19.386Z,93244.97
2023-04-19T02:13:16.305Z,93230.44
2023-04-19T02:14:13.097Z,93220.38
2023-04-19T02:15:10.347Z,93236.59
2023-04-19T02:16:07.491Z,93239.34
2023-04-19T02:17:04.157Z,93232.94
2023-04-19T02:18:00.977Z,93242.34
2023-04-19T02:18:57.597Z,93130.50
2023-04-19T02:19:54.512Z,93207.94
2023-04-19T02:20:51.953Z,93197.56
2023-04-19T02:21:48.521Z,93216.44
2023-04-19T02:22:45.210Z,93235.59
2023-04-19T02:23:41.777Z,93235.16
2023-04-19T02:24:38.397Z,93227.66
2023-04-19T02:25:34.946Z,93230.06
2023-04-19T02:26:31.494Z,93236.94
2023-04-19T02:27:29.150Z,93228.41
2023-04-19T02:28:25.697Z,93229.13
2023-04-19T02:29:22.322Z,93233.47
2023-04-19T02:30:19.003Z,93236.31
2023-04-19T02:31:15.713Z,93224.06
2023-04-19T02:32:13.313Z,93233.22
2023-04-19T02:33:10.024Z,93234.44
2023-04-19T02:34:06.698Z,93233.09
2023-04-19T02:35:03.526Z,93226.91
2023-04-19T02:36:00.553Z,93206.72
2023-04-19T02:36:57.162Z,93231.56
2023-04-19T02:37:53.792Z,93226.78
2023-04-19T02:38:50.409Z,93233.97
2023-04-19T02:39:47.404Z,93225.56
2023-04-19T02:40:44.229Z,93203.44
2023-04-19T02:41:41.637Z,93231.06
2023-04-19T02:42:38.242Z,93227.25
2023-04-19T02:43:34.902Z,93225.38
2023-04-19T02:44:31.586Z,93224.88
2023-04-19T02:45:28.127Z,93232.06
2023-04-19T02:46:24.944Z,93232.97
2023-04-19T02:47:21.932Z,93234.25
2023-04-19T02:48:18.582Z,93228.84
2023-04-19T02:49:15.224Z,93230.38
2023-04-19T02:50:12.540Z,93198.06
2023-04-19T02:51:15.545Z,93231.06
2023-04-19T02:52:12.170Z,93230.38
2023-04-19T02:53:08.755Z,93214.06
2023-04-19T02:54:05.524Z,93209.78
2023-04-19T02:55:02.117Z,93227.34
2023-04-19T02:55:58.746Z,93226.56
2023-04-19T02:56:55.317Z,93230.25
2023-04-19T02:57:52.174Z,93225.75
2023-04-19T02:58:48.831Z,93227.38
2023-04-19T02:59:45.413Z,93202.25
2023-04-19T03:00:42.484Z,93222.31
2023-04-19T03:01:39.203Z,93225.59
2023-04-19T03:02:36.432Z,93223.63
2023-04-19T03:03:33.212Z,93230.47
2023-04-19T03:04:31.423Z,93219.19
2023-04-19T03:05:28.206Z,93231.69
2023-04-19T03:06:25.054Z,93229.56
2023-04-19T03:07:21.684Z,93229.13
2023-04-19T03:08:18.600Z,93227.16
2023-04-19T03:09:15.386Z,93224.72
2023-04-19T03:10:11.977Z,93230.81
2023-04-19T03:11:08.627Z,93219.19
2023-04-19T03:12:07.401Z,93229.03
2023-04-19T03:13:03.937Z,93230.25
2023-04-19T03:14:00.787Z,93225.78
2023-04-19T03:14:57.339Z,93226.19
2023-04-19T03:15:53.997Z,93229.06
2023-04-19T03:16:50.628Z,93221.22
2023-04-19T03:17:47.241Z,93228.50
2023-04-19T03:18:43.799Z,93223.22
2023-04-19T03:19:40.482Z,93221.78
2023-04-19T03:20:37.049Z,93226.97
2023-04-19T03:21:33.688Z,93227.44
2023-04-19T03:22:30.756Z,93221.34
2023-04-19T03:23:27.675Z,93187.81
2023-04-19T03:24:29.261Z,93222.34
2023-04-19T03:25:26.343Z,93217.75
2023-04-19T03:26:22.895Z,93215.31
2023-04-19T03:27:19.567Z,93222.84
2023-04-19T03:28:16.116Z,93212.91
2023-04-19T03:29:14.381Z,93181.78
2023-04-19T03:30:12.707Z,93189.50
2023-04-19T03:31:09.294Z,93223.06
2023-04-19T03:32:06.859Z,93226.50
2023-04-19T03:33:03.501Z,93226.38
2023-04-19T03:34:00.187Z,93198.13
2023-04-19T03:34:56.710Z,93225.41
2023-04-19T03:35:53.283Z,93225.72
2023-04-19T03:36:49.886Z,93231.56
2023-04-19T03:37:46.487Z,93229.16
2023-04-19T03:38:44.532Z,93213.59
2023-04-19T03:39:41.115Z,93228.28
2023-04-19T03:40:38.080Z,93233.34
2023-04-19T03:41:34.674Z,93230.34
2023-04-19T03:42:31.245Z,93228.69
2023-04-19T03:43:28.004Z,93229.78
2023-04-19T03:44:24.580Z,93235.41
2023-04-19T03:45:21.320Z,93228.00
2023-04-19T03:46:18.069Z,93221.25
2023-04-19T03:47:14.749Z,93230.75
2023-04-19T03:48:11.357Z,93202.00
2023-04-19T03:49:08.031Z,93210.78
2023-04-19T03:50:05.036Z,93236.06
2023-04-19T03:51:01.615Z,93215.78
2023-04-19T03:51:58.180Z,93231.00
2023-04-19T03:52:54.904Z,93206.44
2023-04-19T03:53:51.519Z,93198.94
2023-04-19T03:54:48.147Z,93228.69
2023-04-19T03:55:46.009Z,93224.59
2023-04-19T03:56:42.641Z,93221.88
2023-04-19T03:57:39.176Z,93223.28
2023-04-19T03:58:35.778Z,93228.41
2023-04-19T03:59:32.398Z,93226.28
2023-04-19T04:00:28.979Z,93229.84
2023-04-19T04:01:26.821Z,93227.78
2023-04-19T04:02:23.582Z,93230.59
2023-04-19T04:03:20.501Z,93230.75
2023-04-19T04:04:17.734Z,93213.69
2023-04-19T04:05:15.305Z,93229.16
2023-04-19T04:06:12.089Z,93221.38
2023-04-19T04:07:08.746Z,93229.66
2023-04-19T04:08:05.719Z,93233.53
2023-04-19T04:09:02.641Z,93224.16
2023-04-19T04:09:59.282Z,93231.66
2023-04-19T04:10:55.974Z,93232.16
2023-04-19T04:11:52.581Z,93171.28
2023-04-19T04:12:49.169Z,93237.16
2023-04-19T04:13:46.661Z,93181.25
2023-04-19T04:14:43.383Z,93210.50
2023-04-19T04:15:39.965Z,93238.28
2023-04-19T04:16:36.648Z,93235.53
2023-04-19T04:17:33.376Z,93240.06
2023-04-19T04:18:30.921Z,93233.66
2023-04-19T04:19:27.545Z,93245.59
2023-04-19T04:20:24.216Z,93213.06
2023-04-19T04:21:21.219Z,93225.09
2023-04-19T04:22:17.824Z,93234.91
2023-04-19T04:23:14.500Z,93239.97
2023-04-19T04:24:11.110Z,93236.91
2023-04-19T04:25:08.219Z,93232.06
2023-04-19T04:26:06.251Z,93232.69
2023-04-19T04:27:03.287Z,93230.38
2023-04-19T04:28:00.027Z,93237.19
2023-04-19T04:28:57.330Z,93237.88
2023-04-19T04:29:54.559Z,93205.72
2023-04-19T04:30:51.986Z,93239.16
2023-04-19T04:31:48.778Z,93216.75
2023-04-19T04:32:47.030Z,93237.44
2023-04-19T04:33:46.164Z,93227.25
2023-04-19T04:34:43.097Z,93244.38
2023-04-19T04:35:39.973Z,93245.94
2023-04-19T04:36:37.682Z,93249.94
2023-04-19T04:37:35.369Z,93237.72
2023-04-19T04:38:32.243Z,93239.38
2023-04-19T04:39:29.766Z,93241.34
2023-04-19T04:40:26.855Z,93243.66
2023-04-19T04:41:23.604Z,93190.72
2023-04-19T04:42:21.587Z,93237.97
2023-04-19T04:43:18.360Z,93233.44
2023-04-19T04:44:15.396Z,93242.38
2023-04-19T04:45:13.012Z,93241.50
2023-04-19T04:46:09.584Z,93243.28
2023-04-19T04:47:06.159Z,93238.84
2023-04-19T04:48:02.828Z,93239.28
2023-04-19T04:48:59.457Z,93241.72
2023-04-19T04:49:56.101Z,93244.25
2023-04-19T04:50:52.768Z,93238.09
2023-04-19T04:51:49.406Z,93245.72
2023-04-19T04:52:46.305Z,93245.19
2023-04-19T04:53:42.883Z,93244.50
2023-04-19T04:54:39.456Z,93248.63
2023-04-19T04:55:36.478Z,93248.38
2023-04-19T04:56:33.120Z,93247.34
2023-04-19T04:57:29.859Z,93238.94
2023-04-19T04:58:26.516Z,93248.63
2023-04-19T04:59:23.083Z,93247.16
2023-04-19T05:00:20.123Z,93253.44
2023-04-19T05:01:19.510Z,93218.88
2023-04-19T05:02:17.028Z,93244.31
2023-04-19T05:03:13.975Z,93253.59
2023-04-19T05:04:10.733Z,93249.41
2023-04-19T05:05:07.723Z,93253.50
2023-04-19T05:06:04.434Z,93251.25
2023-04-19T05:07:01.208Z,93255.91
2023-04-19T05:07:57.947Z,93252.16
2023-04-19T05:08:54.504Z,93253.06
2023-04-19T05:09:51.185Z,93251.88
2023-04-19T05:10:47.883Z,93254.09
2023-04-19T05:11:44.555Z,93252.16
2023-04-19T05:12:41.810Z,93241.84
2023-04-19T05:13:38.404Z,93239.88
2023-04-19T05:14:34.992Z,93255.66
2023-04-19T05:15:31.548Z,93269.31
2023-04-19T05:16:28.327Z,93252.31
2023-04-19T05:17:25.000Z,93257.34
2023-04-19T05:18:21.695Z,93253.78
2023-04-19T05:19:18.303Z,93244.38
2023-04-19T05:20:15.192Z,93255.53
2023-04-19T05:21:12.002Z,93240.22
2023-04-19T05:22:08.654Z,93252.66
2023-04-19T05:23:05.345Z,93237.06
2023-04-19T05:24:02.047Z,93258.75
2023-04-19T05:24:58.621Z,93249.25
2023-04-19T05:25:55.242Z,93259.88
2023-04-19T05:26:51.838Z,93262.34
2023-04-19T05:27:48.447Z,93259.88
2023-04-19T05:28:45.676Z,93244.44
2023-04-19T05:29:42.283Z,93258.63
2023-04-19T05:30:38.927Z,93248.75
2023-04-19T05:31:35.601Z,93252.91
2023-04-19T05:32:32.433Z,93258.97
2023-04-19T05:33:29.142Z,93263.22
2023-04-19T05:34:26.079Z,93243.22
2023-04-19T05:35:22.702Z,93260.88
2023-04-19T05:36:19.379Z,93261.63
2023-04-19T05:37:16.135Z,93266.97
2023-04-19T05:38:12.763Z,93259.81
2023-04-19T05:39:09.632Z,93245.22
2023-04-19T05:40:10.040Z,93264.53
2023-04-19T05:41:06.687Z,93260.56
2023-04-19T05:42:03.349Z,93261.91
2023-04-19T05:42:59.913Z,93257.34
2023-04-19T05:43:56.506Z,93267.59
2023-04-19T05:44:53.177Z,93260.44
2023-04-19T05:45:49.818Z,93264.66
2023-04-19T05:46:46.425Z,93265.78
2023-04-19T05:47:43.067Z,93261.66
2023-04-19T05:48:39.659Z,93259.78
2023-04-19T05:49:36.298Z,93260.66
2023-04-19T05:50:32.953Z,93255.75
2023-04-19T05:51:29.545Z,93262.81
2023-04-19T05:52:26.200Z,93259.84
2023-04-19T05:53:22.836Z,93249.38
2023-04-19T05:54:19.796Z,93266.53
2023-04-19T05:55:16.652Z,93264.94
2023-04-19T05:56:13.325Z,93264.50
2023-04-19T05:57:10.009Z,93259.63
2023-04-19T05:58:06.588Z,93260.75
2023-04-19T05:59:03.278Z,93258.16
2023-04-19T06:01:02.313Z,93250.84
2023-04-19T06:01:59.683Z,93267.13
2023-04-19T06:02:56.555Z,93230.75
2023-04-19T06:03:54.457Z,93259.69
2023-04-19T06:04:51.451Z,93257.84
2023-04-19T06:05:48.194Z,93262.88
2023-04-19T06:06:44.927Z,93263.72
2023-04-19T06:07:47.142Z,93269.41
2023-04-19T06:08:53.322Z,93266.00
2023-04-19T06:09:51.154Z,93261.53
2023-04-19T06:10:54.604Z,93223.94
2023-04-19T06:11:54.809Z,93239.44
2023-04-19T06:12:51.585Z,93267.91
2023-04-19T06:13:48.333Z,93267.91
2023-04-19T06:14:44.953Z,93270.72
2023-04-19T06:15:41.914Z,93266.44
2023-04-19T06:16:38.720Z,93260.03
2023-04-19T06:17:35.551Z,93272.34
2023-04-19T06:18:32.167Z,93270.00
2023-04-19T06:19:28.770Z,93270.72
2023-04-19T06:20:25.390Z,93276.94
2023-04-19T06:21:22.057Z,93269.59
2023-04-19T06:22:18.739Z,93271.66
2023-04-19T06:23:15.627Z,93232.19
2023-04-19T06:24:12.304Z,93273.16
2023-04-19T06:25:09.139Z,93267.38
2023-04-19T06:26:05.850Z,93263.72
2023-04-19T06:27:02.584Z,93269.75
2023-04-19T06:27:59.554Z,93270.38
2023-04-19T06:28:56.251Z,93269.88
2023-04-19T06:29:52.875Z,93271.75
2023-04-19T06:30:49.534Z,93279.19
2023-04-19T06:31:46.530Z,93264.28
2023-04-19T06:32:43.349Z,93272.03
2023-04-19T06:33:40.019Z,93239.94
2023-04-19T06:34:36.634Z,93268.75
2023-04-19T06:35:33.323Z,93269.88
2023-04-19T06:36:30.013Z,93281.25
2023-04-19T06:37:26.633Z,93271.09
2023-04-19T06:38:23.285Z,93277.13
2023-04-19T06:39:20.271Z,93234.78
2023-04-19T06:40:16.970Z,93267.38
2023-04-19T06:41:13.550Z,93268.44
2023-04-19T06:42:10.446Z,93274.34
2023-04-19T06:43:07.072Z,93220.56
2023-04-19T06:44:03.756Z,93276.84
2023-04-19T06:45:01.329Z,93274.94
2023-04-19T06:46:03.193Z,93274.72
2023-04-19T06:46:59.896Z,93272.63
2023-04-19T06:47:56.578Z,93280.38
2023-04-19T06:48:53.264Z,93280.69
2023-04-19T06:49:49.878Z,93282.69
2023-04-19T06:50:46.985Z,93277.16
2023-04-19T06:51:43.608Z,93257.75
2023-04-19T06:52:40.530Z,93247.75
2023-04-19T06:53:37.997Z,93282.13
2023-04-19T06:54:34.656Z,93283.69
2023-04-19T06:55:31.282Z,93237.44
2023-04-19T06:56:48.720Z,93278.41
2023-04-19T06:57:45.298Z,93266.88
2023-04-19T06:58:41.997Z,93288.72
2023-04-19T06:59:39.877Z,93282.41
2023-04-19T07:00:37.106Z,93281.03
2023-04-19T07:01:33.789Z,93283.09
2023-04-19T07:02:30.544Z,93288.59
2023-04-19T07:03:27.563Z,93288.25
2023-04-19T07:04:25.433Z,93283.31
2023-04-19T07:05:22.188Z,93284.88
2023-04-19T07:06:18.806Z,93293.28
2023-04-19T07:07:15.775Z,93289.41
2023-04-19T07:08:12.444Z,93287.88
2023-04-19T07:09:09.065Z,93297.94
2023-04-19T07:10:06.254Z,93288.72
2023-04-19T07:11:02.914Z,93272.50
2023-04-19T07:11:59.518Z,93294.84
2023-04-19T07:12:56.104Z,93297.22
2023-04-19T07:13:52.708Z,93292.78
2023-04-19T07:14:49.304Z,93292.16
2023-04-19T07:15:45.915Z,93275.31
2023-04-19T07:16:43.052Z,93298.88
2023-04-19T07:17:40.323Z,93291.78
2023-04-19T07:18:36.975Z,93295.63
2023-04-19T07:19:35.586Z,93293.41
2023-04-19T07:20:32.405Z,93295.72
2023-04-19T07:21:33.230Z,93294.34
2023-04-19T07:22:29.862Z,93287.00
2023-04-19T07:23:26.425Z,93294.34
2023-04-19T07:24:23.135Z,93261.25
2023-04-19T07:25:20.397Z,93292.78
2023-04-19T07:26:17.016Z,93296.91
2023-04-19T07:27:14.555Z,93236.06
2023-04-19T07:28:11.590Z,93291.81
2023-04-19T07:29:08.645Z,93302.41
2023-04-19T07:30:06.171Z,93296.41
2023-04-19T07:31:03.037Z,93299.72
2023-04-19T07:32:01.492Z,93294.94
2023-04-19T07:32:58.213Z,93293.72
2023-04-19T07:33:54.872Z,93292.97
2023-04-19T07:34:51.900Z,93295.41
2023-04-19T07:35:48.474Z,93292.91
2023-04-19T07:36:45.041Z,93292.34
2023-04-19T07:37:42.304Z,93293.06
2023-04-19T07:38:38.927Z,93292.25
2023-04-19T07:39:35.666Z,93292.44
2023-04-19T07:40:32.244Z,93298.56
2023-04-19T07:41:29.096Z,93287.47
2023-04-19T07:42:26.051Z,93291.19
2023-04-19T07:43:22.695Z,93295.28
2023-04-19T07:44:19.498Z,93292.72
2023-04-19T07:45:16.402Z,93297.63
2023-04-19T07:46:16.389Z,93289.69
2023-04-19T07:47:13.015Z,93295.13
2023-04-19T07:48:10.179Z,93292.63
2023-04-19T07:49:06.858Z,93255.31
2023-04-19T07:50:05.818Z,93285.09
2023-04-19T07:51:12.768Z,93291.91
2023-04-19T07:52:09.391Z,93286.66
2023-04-19T07:53:06.049Z,93285.75
2023-04-19T07:54:02.653Z,93286.66
2023-04-19T07:54:59.385Z,93294.84
2023-04-19T07:55:56.073Z,93285.28
2023-04-19T07:56:52.674Z,93278.19
2023-04-19T07:57:49.784Z,93290.34
2023-04-19T07:58:50.804Z,93283.22
2023-04-19T07:59:58.059Z,93272.41
2023-04-19T08:00:54.734Z,93286.91
2023-04-19T08:01:51.468Z,93285.25
2023-04-19T08:02:49.364Z,93282.75
2023-04-19T08:03:49.208Z,93292.09
2023-04-19T08:04:49.764Z,93281.22
2023-04-19T08:05:46.971Z,93273.94
2023-04-19T08:06:43.639Z,93271.75
2023-04-19T08:07:40.592Z,93299.81
2023-04-19T08:08:37.456Z,93260.03
2023-04-19T08:09:34.569Z,93259.47
2023-04-19T08:10:31.643Z,93279.16
2023-04-19T08:11:28.561Z,93287.97
2023-04-19T08:12:36.416Z,93293.97
2023-04-19T08:13:35.237Z,93293.31
2023-04-19T08:14:40.471Z,93291.09
2023-04-19T08:17:42.811Z,93284.88
2023-04-19T08:18:39.823Z,93286.44
2023-04-19T08:19:37.302Z,93281.19
2023-04-19T08:20:34.063Z,93274.72
2023-04-19T08:21:40.715Z,93238.56
2023-04-19T08:22:39.423Z,93249.34
2023-04-19T08:23:47.450Z,93281.88
2023-04-19T08:24:44.804Z,93278.03
2023-04-19T08:25:41.474Z,93284.50
2023-04-19T08:26:39.251Z,93288.66
2023-04-19T08:27:35.942Z,93293.78
2023-04-19T08:28:32.522Z,93292.31
2023-04-19T08:29:29.129Z,93273.69
2023-04-19T08:30:27.105Z,93279.41
2023-04-19T08:31:23.795Z,93287.47
2023-04-19T08:32:20.820Z,93274.28
2023-04-19T08:33:18.003Z,93287.06
2023-04-19T08:34:14.617Z,93278.25
2023-04-19T08:35:11.258Z,93283.19
2023-04-19T08:36:08.558Z,93286.50
2023-04-19T08:37:05.955Z,93284.91
2023-04-19T08:38:03.302Z,93289.91
2023-04-19T08:39:06.584Z,93293.19
2023-04-19T08:40:17.821Z,93284.53
2023-04-19T08:41:15.685Z,93285.66
2023-04-19T08:42:24.694Z,93285.56
2023-04-19T08:43:33.495Z,93285.56
2023-04-19T08:44:36.344Z,93289.50
2023-04-19T08:45:33.653Z,93283.47
2023-04-19T08:46:31.487Z,93272.97
2023-04-19T08:47:32.481Z,93280.59
2023-04-19T08:48:31.457Z,93274.38
2023-04-19T08:49:28.694Z,93246.56
2023-04-19T08:50:33.152Z,93258.78
2023-04-19T08:51:32.986Z,93276.97
2023-04-19T08:52:30.543Z,93258.16
2023-04-19T08:53:29.685Z,93277.97
2023-04-19T08:54:26.502Z,93280.63
2023-04-19T08:55:23.282Z,93268.72
2023-04-19T08:56:34.464Z,93273.44
2023-04-19T08:57:32.610Z,93243.28
2023-04-19T08:58:45.690Z,93264.13
2023-04-19T08:59:52.270Z,93264.94
2023-04-19T09:00:48.955Z,93263.97
2023-04-19T09:01:45.666Z,93268.19
2023-04-19T09:02:51.297Z,93264.56
2023-04-19T09:04:01.176Z,93270.00
2023-04-19T09:05:05.267Z,93261.13
2023-04-19T09:06:02.276Z,93266.38
2023-04-19T09:06:59.000Z,93263.53
2023-04-19T09:08:16.235Z,93265.63
2023-04-19T09:10:22.783Z,93265.94
2023-04-19T09:11:20.216Z,93263.69
2023-04-19T09:12:18.365Z,93257.75
2023-04-19T09:13:18.246Z,93259.91
2023-04-19T09:14:16.212Z,93258.28
2023-04-19T09:15:12.795Z,93254.91
2023-04-19T09:16:26.163Z,93251.00
2023-04-19T09:17:23.012Z,93224.81
2023-04-19T09:18:20.395Z,93252.22
2023-04-19T09:19:24.081Z,93252.22
2023-04-19T09:20:37.046Z,93255.47
2023-04-19T09:21:35.242Z,93249.53
2023-04-19T09:22:32.720Z,93253.44
2023-04-19T09:23:29.531Z,93254.41
2023-04-19T09:25:59.264Z,93253.09
2023-04-19T09:26:57.950Z,93254.69
2023-04-19T09:27:55.429Z,93247.16
2023-04-19T09:29:08.122Z,93261.41
2023-04-19T09:30:06.740Z,93256.22
2023-04-19T09:31:35.308Z,93257.81
2023-04-19T09:32:47.409Z,93255.13
2023-04-19T09:33:45.353Z,93252.88
2023-04-19T09:35:00.229Z,93258.88
2023-04-19T09:35:57.289Z,93258.63
2023-04-19T09:37:04.762Z,93244.63
2023-04-19T09:38:10.981Z,93216.59
2023-04-19T09:39:08.238Z,93253.72
2023-04-19T09:40:24.565Z,93240.88
2023-04-19T09:41:21.561Z,93242.28
2023-04-19T09:42:30.738Z,93251.56
2023-04-19T09:44:01.657Z,93253.84
2023-04-19T09:45:27.490Z,93257.34
2023-04-19T09:46:37.225Z,93259.25
2023-04-19T09:47:35.135Z,93219.22
2023-04-19T09:48:31.776Z,93243.81
2023-04-19T09:49:41.627Z,93239.09
2023-04-19T09:50:58.566Z,93242.66
2023-04-19T09:51:58.883Z,93233.06
2023-04-19T09:52:56.055Z,93198.22
2023-04-19T09:53:53.046Z,93240.84
2023-04-19T09:54:53.768Z,93217.44
2023-04-19T09:56:00.244Z,93202.09
2023-04-19T09:57:00.869Z,93236.28
2023-04-19T09:57:58.136Z,93226.53
2023-04-19T09:59:01.661Z,93232.22
2023-04-19T10:00:13.360Z,93238.91
2023-04-19T10:01:15.625Z,93233.00
2023-04-19T10:02:14.947Z,93236.41
2023-04-19T10:03:12.700Z,93229.34
2023-04-19T10:04:24.155Z,93233.53
2023-04-19T10:05:26.757Z,93230.69
2023-04-19T10:07:30.840Z,93205.41
2023-04-19T10:08:28.478Z,93218.59
2023-04-19T10:09:26.597Z,93232.72
2023-04-19T10:10:32.987Z,93213.06
2023-04-19T10:11:39.190Z,93218.41
2023-04-19T10:12:58.506Z,93224.69
2023-04-19T10:13:57.424Z,93224.53
2023-04-19T10:14:56.878Z,93219.03
2023-04-19T10:15:57.268Z,93226.25
2023-04-19T10:17:02.278Z,93225.91
2023-04-19T10:17:59.779Z,93225.72
2023-04-19T10:18:57.583Z,93228.88
2023-04-19T10:20:07.061Z,93229.47
2023-04-19T10:21:08.369Z,93235.13
2023-04-19T10:22:07.236Z,93231.25
2023-04-19T10:23:07.475Z,93240.94
2023-04-19T10:24:05.262Z,93236.72
2023-04-19T10:25:13.232Z,93232.72
2023-04-19T10:26:10.061Z,93201.44
2023-04-19T10:27:13.759Z,93243.84
2023-04-19T10:28:10.375Z,93227.94
2023-04-19T10:29:07.020Z,93231.50
2023-04-19T10:30:08.056Z,93199.38
2023-04-19T10:31:05.487Z,93226.75
2023-04-19T10:32:05.634Z,93230.84
2023-04-19T10:33:04.718Z,93232.06
2023-04-19T10:34:01.574Z,93217.13
2023-04-19T10:35:04.785Z,93227.16
2023-04-19T10:36:02.765Z,93235.34
2023-04-19T10:36:59.431Z,93230.38
2023-04-19T10:38:13.537Z,93199.84
2023-04-19T10:39:39.681Z,93225.03
2023-04-19T10:40:51.584Z,93217.91
2023-04-19T10:41:58.079Z,93213.03
2023-04-19T10:43:13.177Z,93218.38
2023-04-19T10:44:11.739Z,93213.91
2023-04-19T10:45:36.428Z,93216.69
2023-04-19T10:46:33.571Z,93211.75
2023-04-19T10:47:45.761Z,93170.03
2023-04-19T10:48:59.486Z,93215.28
2023-04-19T10:49:56.190Z,93210.94
2023-04-19T10:51:03.701Z,93214.97
2023-04-19T10:52:00.944Z,93210.94
2023-04-19T10:52:57.664Z,93207.16
2023-04-19T10:53:55.577Z,93212.75
2023-04-19T10:54:56.912Z,93181.03
2023-04-19T10:55:53.564Z,93210.59
2023-04-19T10:57:02.494Z,93199.72
2023-04-19T10:58:07.101Z,93204.63
2023-04-19T10:59:11.537Z,93206.22
2023-04-19T11:00:21.818Z,93205.94
2023-04-19T11:01:42.882Z,93213.31
2023-04-19T11:02:39.653Z,93210.84
2023-04-19T11:03:54.601Z,93211.06
2023-04-19T11:04:51.379Z,93207.06
2023-04-19T11:06:21.317Z,93209.81
2023-04-19T11:07:23.705Z,93204.66
2023-04-19T11:08:23.356Z,93200.91
2023-04-19T11:09:26.430Z,93171.75
2023-04-19T11:10:31.366Z,93174.53
2023-04-19T11:11:28.573Z,93151.50
2023-04-19T11:12:25.346Z,93198.72
2023-04-19T11:13:22.201Z,93194.63
2023-04-19T11:14:20.880Z,93171.75
2023-04-19T11:15:17.486Z,93203.81
2023-04-19T11:16:14.402Z,93153.31
2023-04-19T11:17:31.941Z,93125.59
2023-04-19T11:18:30.208Z,93202.44
2023-04-19T11:19:26.823Z,93199.47
2023-04-19T11:20:24.524Z,93200.69
2023-04-19T11:21:21.382Z,93203.75
2023-04-19T11:22:18.140Z,93184.03
2023-04-19T11:23:19.212Z,93196.06
2023-04-19T11:24:18.868Z,93197.16
2023-04-19T11:25:17.408Z,93200.78
2023-04-19T11:26:14.142Z,93203.25
2023-04-19T11:27:10.790Z,93176.88
2023-04-19T11:28:07.695Z,93196.47
2023-04-19T11:29:06.255Z,93174.00
2023-04-19T11:30:05.662Z,93200.78
2023-04-19T11:31:04.488Z,93202.69
2023-04-19T11:32:01.245Z,93200.47
2023-04-19T11:32:58.313Z,93201.56
2023-04-19T11:33:54.993Z,93204.09